METAR Data
IDs: Format: Raw Decoded Include TAF

Data at: 0110 UTC 06 Dec 2019

KMVY 060053Z AUTO 30011G28KT 10SM SCT075 03/M08 A2986 RMK AO2 PK WND 30033/0017 SLP111 T00281083
KMVY 052353Z AUTO 30016G22KT 10SM OVC075 04/M07 A2983 RMK AO2 PK WND 29026/2337 SLP103 T00391067 10067 20039 51041
KMVY 052253Z AUTO 29014G22KT 10SM OVC060 04/M06 A2980 RMK AO2 SLP092 T00441061
KMVY 052153Z 29012G19KT 10SM OVC055 05/M06 A2975 RMK AO2 SLP074 T00501056
KMVY 052053Z 30010G19KT 10SM OVC050 06/M04 A2971 RMK AO2 SLP062 T00561044 53029
KMVY 051953Z 29013G21KT 10SM CLR 06/M04 A2967 RMK AO2 PK WND 27026/1901 SLP047 T00611044
KMVY 051853Z 29013G24KT 10SM CLR 07/M03 A2964 RMK AO2 SLP036 T00671033
KMVY 051753Z 28012G21KT 10SM CLR 07/M02 A2963 RMK AO2 SLP033 T00671022 10067 20017 53002
KMVY 051653Z 28011G18KT 10SM CLR 06/M02 A2962 RMK AO2 SLP030 T00611017
KMVY 051553Z 30012G18KT 10SM CLR 06/M02 A2962 RMK AO2 SLP029 T00561017
KMVY 051453Z 29008G15KT 10SM BKN070 04/M01 A2962 RMK AO2 SLP031 T00391011 53020
KMVY 051353Z 31010KT 10SM CLR 04/M01 A2960 RMK AO2 SLP023 T00441011
KMVY 051253Z 30006KT 10SM CLR 03/M01 A2958 RMK AO2 SLP017 T00331006
KMVY 051153Z 30005KT 9SM CLR 02/M01 A2956 RMK AO2 SLP011 T00171006 10017 21028 53022
KMVY 051053Z AUTO 29004KT 9SM CLR 02/00 A2954 RMK AO2 SLP002 T00170000
KMVY 050953Z AUTO 00000KT 7SM SCT100 M02/M03 A2951 RMK AO2 SLP994 T10221033
KMVY 050853Z AUTO 00000KT 4SM BR SCT110 M02/M03 A2950 RMK AO2 SLP989 T10171028 51006
KMVY 050753Z AUTO 00000KT 8SM CLR M02/M04 A2950 RMK AO2 SLP988 T10171039
KMVY 050653Z AUTO 00000KT 9SM FEW120 M01/M03 A2949 RMK AO2 SLP985 T10111028
KMVY 050553Z AUTO 00000KT 10SM CLR 00/M02 A2948 RMK AO2 SLP982 T00001022 10039 20000 55002
KMVY 050453Z AUTO 31004KT 10SM OVC046 03/M01 A2948 RMK AO2 SLP982 T00281011 400441044
KMVY 050353Z AUTO 29004KT 10SM OVC043 03/M01 A2948 RMK AO2 SLP984 T00281011
KMVY 050253Z AUTO 28003KT 10SM FEW045 02/M02 A2949 RMK AO2 SLP984 T00221017 55002
KMVY 050153Z AUTO 29006KT 10SM OVC033 03/M01 A2948 RMK AO2 SLP982 T00331011
KMVY 050053Z AUTO 28005KT 10SM OVC033 04/M02 A2949 RMK AO2 SLP986 T00391017
KMVY 050040Z AUTO 29006KT 10SM OVC031 04/M02 A2949 RMK AO2 T00391017
KMVY 050017Z AUTO 26005KT 10SM BKN029 OVC037 04/M01 A2949 RMK AO2 T00391011
KMVY 042353Z AUTO 27005KT 10SM OVC034 03/M01 A2949 RMK AO2 SLP986 T00331011 10044 20011 52005
KMVY 042253Z AUTO 00000KT 10SM FEW024 OVC031 02/M01 A2948 RMK AO2 SLP984 T00171006
KMVY 042237Z AUTO 00000KT 10SM SCT024 OVC030 02/M01 A2948 RMK AO2 T00221006
KMVY 042225Z AUTO 00000KT 10SM BKN024 OVC033 02/M01 A2948 RMK AO2 T00221006
KMVY 042210Z AUTO 00000KT 10SM OVC030 02/M01 A2948 RMK AO2 T00221006
KMVY 042153Z 00000KT 10SM BKN029 OVC035 02/M01 A2948 RMK AO2 SLP983 T00221006
KMVY 042121Z 00000KT 10SM SCT026 SCT032 BKN039 03/M01 A2948 RMK AO2 T00331006
KMVY 042101Z 00000KT 10SM BKN027 BKN032 03/M01 A2948 RMK AO2 T00281006
KMVY 042053Z 00000KT 10SM SCT029 BKN055 03/M01 A2947 RMK AO2 SLP981 T00331006 56007
KMVY 041953Z 29003KT 10SM SCT025 OVC060 04/M01 A2948 RMK AO2 SLP982 T00391006
KMVY 041916Z 30004KT 10SM FEW023 OVC060 04/M01 A2948 RMK AO2 T00391006
KMVY 041853Z 29004KT 10SM BKN022 BKN028 OVC060 04/M01 A2948 RMK AO2 SLP983 T00391006
KMVY 041834Z 30007KT 10SM BKN023 BKN028 OVC075 04/M01 A2948 RMK AO2 T00391006
KMVY 041753Z 30007KT 10SM FEW024 OVC075 04/M01 A2950 RMK AO2 SLP988 T00391011 10039 21044 58017
KMVY 041653Z 29007KT 10SM BKN095 04/M01 A2951 RMK AO2 SLP994 T00391011
KMVY 041553Z 28005KT 10SM BKN100 03/M02 A2953 RMK AO2 SLP000 T00331017
KMVY 041453Z 26004KT 10SM CLR 03/M02 A2955 RMK AO2 SLP005 T00281022 50000
KMVY 041353Z 25003KT 10SM SCT120 01/M04 A2955 RMK AO2 SLP007 T00061044